sensor_id;sensor_type;location;lat;lon;timestamp;P1;durP1;ratioP1;P2;durP2;ratioP2
16977;SDS011;8605;52.548;4.918;2023-02-28T09:53:56;12.20;;;6.30;;
16977;SDS011;8605;52.548;4.918;2023-02-28T09:59:04;9.47;;;5.67;;
16977;SDS011;8605;52.548;4.918;2023-02-28T10:04:14;9.87;;;4.83;;
16977;SDS011;8605;52.548;4.918;2023-02-28T10:09:21;8.10;;;5.07;;
16977;SDS011;8605;52.548;4.918;2023-02-28T10:14:27;6.67;;;4.83;;
16977;SDS011;8605;52.548;4.918;2023-02-28T10:19:32;8.07;;;5.43;;
16977;SDS011;8605;52.548;4.918;2023-02-28T10:24:41;7.37;;;5.43;;
16977;SDS011;8605;52.548;4.918;2023-02-28T10:29:45;7.63;;;4.93;;
16977;SDS011;8605;52.548;4.918;2023-02-28T10:34:50;8.40;;;5.47;;
16977;SDS011;8605;52.548;4.918;2023-02-28T10:39:55;8.07;;;4.57;;
16977;SDS011;8605;52.548;4.918;2023-02-28T10:45:05;5.80;;;4.10;;
16977;SDS011;8605;52.548;4.918;2023-02-28T10:50:26;7.87;;;5.53;;
16977;SDS011;8605;52.548;4.918;2023-02-28T10:55:35;7.60;;;4.57;;
16977;SDS011;8605;52.548;4.918;2023-02-28T11:00:40;9.13;;;3.43;;
16977;SDS011;8605;52.548;4.918;2023-02-28T11:05:43;7.47;;;4.57;;
16977;SDS011;8605;52.548;4.918;2023-02-28T11:10:48;6.47;;;3.93;;
16977;SDS011;8605;52.548;4.918;2023-02-28T11:15:57;4.73;;;3.07;;
16977;SDS011;8605;52.548;4.918;2023-02-28T11:21:01;5.47;;;2.43;;
16977;SDS011;8605;52.548;4.918;2023-02-28T11:26:06;5.73;;;2.33;;
16977;SDS011;8605;52.548;4.918;2023-02-28T11:31:16;3.60;;;2.20;;
16977;SDS011;8605;52.548;4.918;2023-02-28T11:36:21;2.67;;;1.90;;
16977;SDS011;8605;52.548;4.918;2023-02-28T11:41:30;2.93;;;2.00;;
16977;SDS011;8605;52.548;4.918;2023-02-28T11:46:45;1.40;;;1.30;;
16977;SDS011;8605;52.548;4.918;2023-02-28T11:51:53;1.63;;;1.10;;
16977;SDS011;8605;52.548;4.918;2023-02-28T11:57:03;1.87;;;1.33;;
16977;SDS011;8605;52.548;4.918;2023-02-28T12:02:24;1.17;;;1.07;;
16977;SDS011;8605;52.548;4.918;2023-02-28T12:07:31;1.73;;;1.37;;
16977;SDS011;8605;52.548;4.918;2023-02-28T12:12:41;4.03;;;1.80;;
16977;SDS011;8605;52.548;4.918;2023-02-28T12:17:51;0.90;;;0.90;;
16977;SDS011;8605;52.548;4.918;2023-02-28T12:23:10;1.83;;;1.43;;
16977;SDS011;8605;52.548;4.918;2023-02-28T12:28:26;1.57;;;1.20;;
16977;SDS011;8605;52.548;4.918;2023-02-28T12:33:32;1.13;;;1.07;;
16977;SDS011;8605;52.548;4.918;2023-02-28T12:38:38;1.30;;;1.00;;
16977;SDS011;8605;52.548;4.918;2023-02-28T12:43:45;1.93;;;1.23;;
16977;SDS011;8605;52.548;4.918;2023-02-28T12:48:50;1.53;;;1.20;;
16977;SDS011;8605;52.548;4.918;2023-02-28T12:53:58;1.53;;;0.90;;
16977;SDS011;8605;52.548;4.918;2023-02-28T12:59:12;1.73;;;1.17;;
16977;SDS011;8605;52.548;4.918;2023-02-28T13:04:25;1.43;;;1.13;;
16977;SDS011;8605;52.548;4.918;2023-02-28T13:09:34;2.67;;;1.17;;
16977;SDS011;8605;52.548;4.918;2023-02-28T13:14:39;6.37;;;1.70;;
16977;SDS011;8605;52.548;4.918;2023-02-28T13:19:43;1.83;;;1.10;;
16977;SDS011;8605;52.548;4.918;2023-02-28T13:24:48;2.23;;;1.60;;
16977;SDS011;8605;52.548;4.918;2023-02-28T13:29:54;3.17;;;1.80;;
16977;SDS011;8605;52.548;4.918;2023-02-28T13:35:12;4.57;;;1.80;;
16977;SDS011;8605;52.548;4.918;2023-02-28T13:40:26;1.67;;;1.50;;
16977;SDS011;8605;52.548;4.918;2023-02-28T13:45:39;5.67;;;1.57;;
16977;SDS011;8605;52.548;4.918;2023-02-28T13:56:43;2.77;;;1.30;;
16977;SDS011;8605;52.548;4.918;2023-02-28T14:07:29;2.97;;;2.67;;
16977;SDS011;8605;52.548;4.918;2023-02-28T14:12:56;4.70;;;1.93;;
16977;SDS011;8605;52.548;4.918;2023-02-28T14:18:03;2.73;;;1.40;;
16977;SDS011;8605;52.548;4.918;2023-02-28T14:23:10;2.27;;;1.37;;
16977;SDS011;8605;52.548;4.918;2023-02-28T14:28:18;2.30;;;1.43;;
16977;SDS011;8605;52.548;4.918;2023-02-28T14:33:34;4.47;;;1.80;;
16977;SDS011;8605;52.548;4.918;2023-02-28T14:38:45;3.17;;;2.40;;
16977;SDS011;8605;52.548;4.918;2023-02-28T14:43:50;3.93;;;2.07;;
16977;SDS011;8605;52.548;4.918;2023-02-28T14:48:56;1.53;;;1.43;;
16977;SDS011;8605;52.548;4.918;2023-02-28T14:54:00;1.63;;;1.40;;
16977;SDS011;8605;52.548;4.918;2023-02-28T14:59:04;2.77;;;1.83;;
16977;SDS011;8605;52.548;4.918;2023-02-28T15:04:24;2.40;;;1.37;;
16977;SDS011;8605;52.548;4.918;2023-02-28T15:09:30;1.63;;;1.13;;
16977;SDS011;8605;52.548;4.918;2023-02-28T15:14:33;1.90;;;1.33;;
16977;SDS011;8605;52.548;4.918;2023-02-28T15:19:39;1.30;;;1.23;;
16977;SDS011;8605;52.548;4.918;2023-02-28T15:24:45;1.73;;;1.30;;
16977;SDS011;8605;52.548;4.918;2023-02-28T15:29:51;2.93;;;1.67;;
16977;SDS011;8605;52.548;4.918;2023-02-28T15:34:59;2.40;;;1.50;;
16977;SDS011;8605;52.548;4.918;2023-02-28T15:40:22;2.63;;;1.53;;
16977;SDS011;8605;52.548;4.918;2023-02-28T15:45:28;1.13;;;1.03;;
16977;SDS011;8605;52.548;4.918;2023-02-28T15:50:37;1.87;;;1.20;;
16977;SDS011;8605;52.548;4.918;2023-02-28T15:55:40;2.97;;;1.40;;
16977;SDS011;8605;52.548;4.918;2023-02-28T16:00:43;1.70;;;1.40;;
16977;SDS011;8605;52.548;4.918;2023-02-28T16:11:14;2.80;;;1.57;;
16977;SDS011;8605;52.548;4.918;2023-02-28T16:16:18;3.50;;;1.30;;
16977;SDS011;8605;52.548;4.918;2023-02-28T16:21:23;3.30;;;1.63;;
16977;SDS011;8605;52.548;4.918;2023-02-28T16:26:27;2.23;;;2.07;;
16977;SDS011;8605;52.548;4.918;2023-02-28T16:31:30;5.10;;;2.07;;
16977;SDS011;8605;52.548;4.918;2023-02-28T16:36:34;3.07;;;1.90;;
16977;SDS011;8605;52.548;4.918;2023-02-28T16:41:37;3.80;;;1.90;;
16977;SDS011;8605;52.548;4.918;2023-02-28T16:46:44;4.23;;;2.20;;
16977;SDS011;8605;52.548;4.918;2023-02-28T16:51:48;2.83;;;1.80;;
16977;SDS011;8605;52.548;4.918;2023-02-28T16:56:51;2.57;;;1.67;;
16977;SDS011;8605;52.548;4.918;2023-02-28T17:01:54;2.30;;;1.77;;
16977;SDS011;8605;52.548;4.918;2023-02-28T17:07:00;2.20;;;2.00;;
16977;SDS011;8605;52.548;4.918;2023-02-28T17:12:03;3.13;;;2.10;;
16977;SDS011;8605;52.548;4.918;2023-02-28T17:17:06;3.50;;;2.53;;
16977;SDS011;8605;52.548;4.918;2023-02-28T17:22:11;2.50;;;2.30;;
16977;SDS011;8605;52.548;4.918;2023-02-28T17:27:14;4.70;;;2.10;;
16977;SDS011;8605;52.548;4.918;2023-02-28T17:32:17;6.00;;;3.33;;
16977;SDS011;8605;52.548;4.918;2023-02-28T17:37:21;4.17;;;3.20;;
16977;SDS011;8605;52.548;4.918;2023-02-28T17:42:24;5.53;;;3.20;;
16977;SDS011;8605;52.548;4.918;2023-02-28T17:47:27;4.90;;;3.03;;
16977;SDS011;8605;52.548;4.918;2023-02-28T17:52:31;3.67;;;2.70;;
16977;SDS011;8605;52.548;4.918;2023-02-28T17:57:38;3.67;;;2.40;;
16977;SDS011;8605;52.548;4.918;2023-02-28T18:02:43;3.03;;;2.73;;
16977;SDS011;8605;52.548;4.918;2023-02-28T18:07:47;4.53;;;3.10;;
16977;SDS011;8605;52.548;4.918;2023-02-28T18:12:50;4.80;;;3.30;;
16977;SDS011;8605;52.548;4.918;2023-02-28T18:17:54;6.77;;;4.03;;
16977;SDS011;8605;52.548;4.918;2023-02-28T18:22:58;5.20;;;3.53;;
16977;SDS011;8605;52.548;4.918;2023-02-28T18:28:01;5.30;;;3.57;;
16977;SDS011;8605;52.548;4.918;2023-02-28T18:33:05;4.47;;;3.13;;
16977;SDS011;8605;52.548;4.918;2023-02-28T18:38:10;5.30;;;2.83;;
16977;SDS011;8605;52.548;4.918;2023-02-28T18:43:15;4.23;;;2.77;;
16977;SDS011;8605;52.548;4.918;2023-02-28T18:48:18;4.33;;;3.40;;
16977;SDS011;8605;52.548;4.918;2023-02-28T18:53:22;4.73;;;3.00;;
16977;SDS011;8605;52.548;4.918;2023-02-28T18:58:25;6.50;;;3.80;;
16977;SDS011;8605;52.548;4.918;2023-02-28T19:03:28;8.47;;;4.83;;
16977;SDS011;8605;52.548;4.918;2023-02-28T19:08:32;6.87;;;3.80;;
16977;SDS011;8605;52.548;4.918;2023-02-28T19:13:35;10.33;;;4.13;;
16977;SDS011;8605;52.548;4.918;2023-02-28T19:18:38;6.23;;;4.23;;
16977;SDS011;8605;52.548;4.918;2023-02-28T19:23:43;12.23;;;5.23;;
16977;SDS011;8605;52.548;4.918;2023-02-28T19:28:46;5.27;;;3.97;;
16977;SDS011;8605;52.548;4.918;2023-02-28T19:33:48;6.37;;;4.00;;
16977;SDS011;8605;52.548;4.918;2023-02-28T19:38:54;4.90;;;4.00;;
16977;SDS011;8605;52.548;4.918;2023-02-28T19:43:57;4.70;;;3.40;;
16977;SDS011;8605;52.548;4.918;2023-02-28T19:49:00;6.73;;;4.03;;
16977;SDS011;8605;52.548;4.918;2023-02-28T19:54:04;5.47;;;3.80;;
16977;SDS011;8605;52.548;4.918;2023-02-28T19:59:07;5.67;;;3.40;;
16977;SDS011;8605;52.548;4.918;2023-02-28T20:04:22;6.93;;;4.07;;
16977;SDS011;8605;52.548;4.918;2023-02-28T20:09:30;8.73;;;4.37;;
16977;SDS011;8605;52.548;4.918;2023-02-28T20:14:33;7.53;;;5.10;;
16977;SDS011;8605;52.548;4.918;2023-02-28T20:19:36;7.23;;;4.00;;
16977;SDS011;8605;52.548;4.918;2023-02-28T20:24:40;8.10;;;4.60;;
16977;SDS011;8605;52.548;4.918;2023-02-28T20:29:43;5.90;;;3.80;;
16977;SDS011;8605;52.548;4.918;2023-02-28T20:34:46;5.63;;;3.73;;
16977;SDS011;8605;52.548;4.918;2023-02-28T20:39:50;5.37;;;3.93;;
16977;SDS011;8605;52.548;4.918;2023-02-28T20:44:53;6.40;;;3.73;;
16977;SDS011;8605;52.548;4.918;2023-02-28T20:49:56;5.03;;;3.73;;
16977;SDS011;8605;52.548;4.918;2023-02-28T20:55:00;7.20;;;3.97;;
16977;SDS011;8605;52.548;4.918;2023-02-28T21:00:03;6.00;;;3.87;;
16977;SDS011;8605;52.548;4.918;2023-02-28T21:05:09;7.43;;;4.50;;
16977;SDS011;8605;52.548;4.918;2023-02-28T21:10:13;9.77;;;4.40;;
16977;SDS011;8605;52.548;4.918;2023-02-28T21:15:16;7.37;;;4.57;;
16977;SDS011;8605;52.548;4.918;2023-02-28T21:20:19;5.77;;;3.97;;
16977;SDS011;8605;52.548;4.918;2023-02-28T21:25:25;8.83;;;3.90;;
16977;SDS011;8605;52.548;4.918;2023-02-28T21:30:28;13.40;;;4.20;;
16977;SDS011;8605;52.548;4.918;2023-02-28T21:35:31;6.33;;;4.17;;
16977;SDS011;8605;52.548;4.918;2023-02-28T21:40:36;5.27;;;3.73;;
16977;SDS011;8605;52.548;4.918;2023-02-28T21:45:39;5.50;;;3.63;;
16977;SDS011;8605;52.548;4.918;2023-02-28T21:50:42;7.47;;;3.87;;
16977;SDS011;8605;52.548;4.918;2023-02-28T21:55:46;9.13;;;4.20;;
16977;SDS011;8605;52.548;4.918;2023-02-28T22:00:49;8.47;;;4.30;;
16977;SDS011;8605;52.548;4.918;2023-02-28T22:05:51;7.60;;;4.40;;
16977;SDS011;8605;52.548;4.918;2023-02-28T22:10:56;7.17;;;4.70;;
16977;SDS011;8605;52.548;4.918;2023-02-28T22:16:04;7.73;;;4.70;;
16977;SDS011;8605;52.548;4.918;2023-02-28T22:21:08;7.63;;;4.57;;
16977;SDS011;8605;52.548;4.918;2023-02-28T22:26:14;7.90;;;4.63;;
16977;SDS011;8605;52.548;4.918;2023-02-28T22:31:19;9.70;;;5.23;;
16977;SDS011;8605;52.548;4.918;2023-02-28T22:36:23;7.70;;;5.43;;
16977;SDS011;8605;52.548;4.918;2023-02-28T22:41:28;7.70;;;4.50;;
16977;SDS011;8605;52.548;4.918;2023-02-28T22:46:31;9.67;;;4.20;;
16977;SDS011;8605;52.548;4.918;2023-02-28T22:51:35;10.33;;;4.97;;
16977;SDS011;8605;52.548;4.918;2023-02-28T22:56:39;9.67;;;5.07;;
16977;SDS011;8605;52.548;4.918;2023-02-28T23:01:42;13.50;;;5.33;;
16977;SDS011;8605;52.548;4.918;2023-02-28T23:06:45;9.47;;;5.50;;
16977;SDS011;8605;52.548;4.918;2023-02-28T23:11:49;12.07;;;5.53;;
16977;SDS011;8605;52.548;4.918;2023-02-28T23:16:53;9.67;;;5.13;;
16977;SDS011;8605;52.548;4.918;2023-02-28T23:21:56;7.93;;;4.43;;
16977;SDS011;8605;52.548;4.918;2023-02-28T23:27:02;11.80;;;6.10;;
16977;SDS011;8605;52.548;4.918;2023-02-28T23:32:05;11.70;;;5.70;;
16977;SDS011;8605;52.548;4.918;2023-02-28T23:37:08;8.63;;;5.17;;
16977;SDS011;8605;52.548;4.918;2023-02-28T23:42:13;9.73;;;4.67;;
16977;SDS011;8605;52.548;4.918;2023-02-28T23:47:15;15.33;;;4.60;;
16977;SDS011;8605;52.548;4.918;2023-02-28T23:52:18;9.57;;;5.60;;
16977;SDS011;8605;52.548;4.918;2023-02-28T23:57:23;9.63;;;5.07;;
